< < Back
Terminal Aerodrome Forecast


Current Version              Previous Versions:   1  2  3  4  5  6  7  8  9  

Terminal Aerodrome Forecast

555
FTUS42 KFFC 161400 AAA
TAFCSG
TAF AMD
KCSG 161406Z 1614/1712 09012G20KT P6SM SKC
     FM170000 10006KT P6SM SCT250=

Latest METAR

275
SAUS70 KWBC 162200 RRA
MTRCSG
METAR KCSG 162151Z 11009G14KT 10SM CLR 18/M02 A3019 RMK AO2 SLP222
T01781017


USA.gov is the U.S. government's official web portal to all federal, state and local government web resources and services.